sensor_id;sensor_type;location;lat;lon;timestamp;P1;durP1;ratioP1;P2;durP2;ratioP2
38238;SDS011;24035;48.900;9.188;2023-03-31T00:02:01;4.03;;;0.70;;
38238;SDS011;24035;48.900;9.188;2023-03-31T00:04:31;1.75;;;0.40;;
38238;SDS011;24035;48.900;9.188;2023-03-31T00:07:00;5.30;;;0.57;;
38238;SDS011;24035;48.900;9.188;2023-03-31T00:09:26;2.35;;;0.57;;
38238;SDS011;24035;48.900;9.188;2023-03-31T00:11:54;3.53;;;0.65;;
38238;SDS011;24035;48.900;9.188;2023-03-31T00:14:20;3.72;;;0.80;;
38238;SDS011;24035;48.900;9.188;2023-03-31T00:16:45;5.13;;;0.63;;
38238;SDS011;24035;48.900;9.188;2023-03-31T00:19:12;2.70;;;0.60;;
38238;SDS011;24035;48.900;9.188;2023-03-31T00:21:46;2.47;;;0.75;;
38238;SDS011;24035;48.900;9.188;2023-03-31T00:24:13;2.45;;;0.65;;
38238;SDS011;24035;48.900;9.188;2023-03-31T00:26:39;2.05;;;0.40;;
38238;SDS011;24035;48.900;9.188;2023-03-31T00:29:06;3.95;;;0.55;;
38238;SDS011;24035;48.900;9.188;2023-03-31T00:31:33;1.92;;;0.60;;
38238;SDS011;24035;48.900;9.188;2023-03-31T00:34:00;3.22;;;0.63;;
38238;SDS011;24035;48.900;9.188;2023-03-31T00:36:25;3.75;;;0.70;;
38238;SDS011;24035;48.900;9.188;2023-03-31T00:38:52;3.80;;;1.02;;
38238;SDS011;24035;48.900;9.188;2023-03-31T00:41:25;4.50;;;1.05;;
38238;SDS011;24035;48.900;9.188;2023-03-31T00:46:31;5.15;;;0.80;;
38238;SDS011;24035;48.900;9.188;2023-03-31T00:49:27;1.98;;;0.63;;
38238;SDS011;24035;48.900;9.188;2023-03-31T00:52:06;4.80;;;0.98;;
38238;SDS011;24035;48.900;9.188;2023-03-31T00:54:37;3.17;;;0.60;;
38238;SDS011;24035;48.900;9.188;2023-03-31T00:57:05;2.20;;;0.70;;
38238;SDS011;24035;48.900;9.188;2023-03-31T00:59:39;3.05;;;0.70;;
38238;SDS011;24035;48.900;9.188;2023-03-31T01:02:08;3.30;;;0.90;;
38238;SDS011;24035;48.900;9.188;2023-03-31T01:04:42;3.30;;;0.88;;
38238;SDS011;24035;48.900;9.188;2023-03-31T01:09:47;2.05;;;0.43;;
38238;SDS011;24035;48.900;9.188;2023-03-31T01:12:14;4.95;;;0.82;;
38238;SDS011;24035;48.900;9.188;2023-03-31T01:14:41;3.28;;;0.82;;
38238;SDS011;24035;48.900;9.188;2023-03-31T01:17:07;2.10;;;0.60;;
38238;SDS011;24035;48.900;9.188;2023-03-31T01:28:20;3.53;;;0.50;;
38238;SDS011;24035;48.900;9.188;2023-03-31T01:31:05;3.90;;;0.80;;
38238;SDS011;24035;48.900;9.188;2023-03-31T01:42:33;2.00;;;0.50;;
38238;SDS011;24035;48.900;9.188;2023-03-31T01:48:20;2.60;;;0.63;;
38238;SDS011;24035;48.900;9.188;2023-03-31T01:53:54;1.88;;;0.43;;
38238;SDS011;24035;48.900;9.188;2023-03-31T01:56:29;3.83;;;0.65;;
38238;SDS011;24035;48.900;9.188;2023-03-31T01:58:58;3.63;;;0.50;;
38238;SDS011;24035;48.900;9.188;2023-03-31T02:04:11;3.47;;;0.60;;
38238;SDS011;24035;48.900;9.188;2023-03-31T02:06:41;1.20;;;0.40;;
38238;SDS011;24035;48.900;9.188;2023-03-31T02:09:19;2.08;;;0.50;;
38238;SDS011;24035;48.900;9.188;2023-03-31T02:11:47;1.67;;;0.43;;
38238;SDS011;24035;48.900;9.188;2023-03-31T02:14:17;3.97;;;0.45;;
38238;SDS011;24035;48.900;9.188;2023-03-31T02:16:46;4.10;;;0.40;;
38238;SDS011;24035;48.900;9.188;2023-03-31T02:19:16;2.22;;;0.40;;
38238;SDS011;24035;48.900;9.188;2023-03-31T02:21:48;2.22;;;0.40;;
38238;SDS011;24035;48.900;9.188;2023-03-31T02:24:15;0.98;;;0.30;;
38238;SDS011;24035;48.900;9.188;2023-03-31T02:26:53;2.45;;;0.47;;
38238;SDS011;24035;48.900;9.188;2023-03-31T02:29:26;2.53;;;0.95;;
38238;SDS011;24035;48.900;9.188;2023-03-31T02:31:55;2.55;;;0.40;;
38238;SDS011;24035;48.900;9.188;2023-03-31T02:34:35;1.40;;;0.30;;
38238;SDS011;24035;48.900;9.188;2023-03-31T02:37:01;2.72;;;0.47;;
38238;SDS011;24035;48.900;9.188;2023-03-31T02:39:28;4.18;;;0.57;;
38238;SDS011;24035;48.900;9.188;2023-03-31T02:41:57;3.20;;;0.43;;
38238;SDS011;24035;48.900;9.188;2023-03-31T02:44:23;3.47;;;0.55;;
38238;SDS011;24035;48.900;9.188;2023-03-31T02:46:49;3.08;;;0.50;;
38238;SDS011;24035;48.900;9.188;2023-03-31T02:49:15;2.05;;;0.40;;
38238;SDS011;24035;48.900;9.188;2023-03-31T02:51:46;3.67;;;0.50;;
38238;SDS011;24035;48.900;9.188;2023-03-31T03:00:00;2.25;;;0.65;;
38238;SDS011;24035;48.900;9.188;2023-03-31T03:05:31;4.55;;;0.75;;
38238;SDS011;24035;48.900;9.188;2023-03-31T03:08:10;2.60;;;0.60;;
38238;SDS011;24035;48.900;9.188;2023-03-31T03:10:55;3.17;;;0.50;;
38238;SDS011;24035;48.900;9.188;2023-03-31T03:16:20;3.60;;;0.47;;
38238;SDS011;24035;48.900;9.188;2023-03-31T03:18:56;4.00;;;1.10;;
38238;SDS011;24035;48.900;9.188;2023-03-31T03:21:27;3.15;;;0.55;;
38238;SDS011;24035;48.900;9.188;2023-03-31T03:23:53;3.05;;;0.60;;
38238;SDS011;24035;48.900;9.188;2023-03-31T03:26:19;2.40;;;0.57;;
38238;SDS011;24035;48.900;9.188;2023-03-31T03:28:47;3.38;;;0.50;;
38238;SDS011;24035;48.900;9.188;2023-03-31T03:31:16;2.95;;;0.98;;
38238;SDS011;24035;48.900;9.188;2023-03-31T03:33:42;1.63;;;0.52;;
38238;SDS011;24035;48.900;9.188;2023-03-31T03:36:08;3.38;;;0.90;;
38238;SDS011;24035;48.900;9.188;2023-03-31T03:38:34;4.45;;;0.68;;
38238;SDS011;24035;48.900;9.188;2023-03-31T03:41:00;2.28;;;0.68;;
38238;SDS011;24035;48.900;9.188;2023-03-31T03:43:26;2.83;;;0.85;;
38238;SDS011;24035;48.900;9.188;2023-03-31T03:45:52;2.55;;;0.60;;
38238;SDS011;24035;48.900;9.188;2023-03-31T03:48:17;4.50;;;0.57;;
38238;SDS011;24035;48.900;9.188;2023-03-31T03:50:44;2.15;;;0.60;;
38238;SDS011;24035;48.900;9.188;2023-03-31T03:53:11;2.92;;;0.70;;
38238;SDS011;24035;48.900;9.188;2023-03-31T03:55:37;4.55;;;1.20;;
38238;SDS011;24035;48.900;9.188;2023-03-31T03:58:03;2.38;;;0.75;;
38238;SDS011;24035;48.900;9.188;2023-03-31T04:00:28;2.97;;;1.05;;
38238;SDS011;24035;48.900;9.188;2023-03-31T04:02:54;3.90;;;1.23;;
38238;SDS011;24035;48.900;9.188;2023-03-31T04:05:20;2.58;;;0.75;;
38238;SDS011;24035;48.900;9.188;2023-03-31T04:07:46;4.07;;;0.75;;
38238;SDS011;24035;48.900;9.188;2023-03-31T04:10:12;4.68;;;1.00;;
38238;SDS011;24035;48.900;9.188;2023-03-31T04:12:38;1.50;;;0.63;;
38238;SDS011;24035;48.900;9.188;2023-03-31T04:15:04;3.22;;;0.73;;
38238;SDS011;24035;48.900;9.188;2023-03-31T04:17:30;3.55;;;0.90;;
38238;SDS011;24035;48.900;9.188;2023-03-31T04:20:01;5.07;;;1.55;;
38238;SDS011;24035;48.900;9.188;2023-03-31T04:22:30;3.13;;;0.80;;
38238;SDS011;24035;48.900;9.188;2023-03-31T04:25:03;2.83;;;0.88;;
38238;SDS011;24035;48.900;9.188;2023-03-31T04:27:34;3.08;;;0.77;;
38238;SDS011;24035;48.900;9.188;2023-03-31T04:30:00;2.30;;;0.50;;
38238;SDS011;24035;48.900;9.188;2023-03-31T04:32:26;5.15;;;1.00;;
38238;SDS011;24035;48.900;9.188;2023-03-31T04:34:52;5.07;;;0.80;;
38238;SDS011;24035;48.900;9.188;2023-03-31T04:37:28;3.75;;;0.93;;
38238;SDS011;24035;48.900;9.188;2023-03-31T04:39:59;3.97;;;1.25;;
38238;SDS011;24035;48.900;9.188;2023-03-31T04:42:33;7.10;;;1.33;;
38238;SDS011;24035;48.900;9.188;2023-03-31T04:44:59;2.75;;;0.68;;
38238;SDS011;24035;48.900;9.188;2023-03-31T04:47:24;3.53;;;0.90;;
38238;SDS011;24035;48.900;9.188;2023-03-31T04:49:51;4.28;;;0.90;;
38238;SDS011;24035;48.900;9.188;2023-03-31T04:52:16;6.20;;;1.08;;
38238;SDS011;24035;48.900;9.188;2023-03-31T04:54:42;5.90;;;0.80;;
38238;SDS011;24035;48.900;9.188;2023-03-31T04:57:07;5.30;;;1.35;;
38238;SDS011;24035;48.900;9.188;2023-03-31T04:59:33;5.05;;;1.08;;
38238;SDS011;24035;48.900;9.188;2023-03-31T05:02:00;2.60;;;0.90;;
38238;SDS011;24035;48.900;9.188;2023-03-31T05:04:25;3.75;;;1.02;;
38238;SDS011;24035;48.900;9.188;2023-03-31T05:06:51;3.63;;;1.10;;
38238;SDS011;24035;48.900;9.188;2023-03-31T05:09:17;7.03;;;1.10;;
38238;SDS011;24035;48.900;9.188;2023-03-31T05:11:42;5.43;;;1.33;;
38238;SDS011;24035;48.900;9.188;2023-03-31T05:14:08;3.75;;;1.05;;
38238;SDS011;24035;48.900;9.188;2023-03-31T05:16:34;4.25;;;1.25;;
38238;SDS011;24035;48.900;9.188;2023-03-31T05:19:00;3.88;;;1.25;;
38238;SDS011;24035;48.900;9.188;2023-03-31T05:21:25;6.07;;;1.45;;
38238;SDS011;24035;48.900;9.188;2023-03-31T05:23:52;3.38;;;1.02;;
38238;SDS011;24035;48.900;9.188;2023-03-31T05:26:18;6.80;;;1.25;;
38238;SDS011;24035;48.900;9.188;2023-03-31T05:28:43;4.60;;;1.15;;
38238;SDS011;24035;48.900;9.188;2023-03-31T05:31:09;4.63;;;1.25;;
38238;SDS011;24035;48.900;9.188;2023-03-31T05:33:37;4.10;;;1.20;;
38238;SDS011;24035;48.900;9.188;2023-03-31T05:36:06;6.68;;;1.38;;
38238;SDS011;24035;48.900;9.188;2023-03-31T05:38:32;4.65;;;1.63;;
38238;SDS011;24035;48.900;9.188;2023-03-31T05:40:59;3.95;;;1.30;;
38238;SDS011;24035;48.900;9.188;2023-03-31T05:43:24;3.85;;;1.40;;
38238;SDS011;24035;48.900;9.188;2023-03-31T05:45:50;6.97;;;1.58;;
38238;SDS011;24035;48.900;9.188;2023-03-31T05:48:16;8.50;;;1.92;;
38238;SDS011;24035;48.900;9.188;2023-03-31T05:50:42;4.72;;;1.67;;
38238;SDS011;24035;48.900;9.188;2023-03-31T05:53:08;6.03;;;1.75;;
38238;SDS011;24035;48.900;9.188;2023-03-31T05:55:37;4.63;;;1.50;;
38238;SDS011;24035;48.900;9.188;2023-03-31T05:58:03;5.60;;;1.67;;
38238;SDS011;24035;48.900;9.188;2023-03-31T06:00:29;5.63;;;1.60;;
38238;SDS011;24035;48.900;9.188;2023-03-31T06:02:55;4.50;;;1.58;;
38238;SDS011;24035;48.900;9.188;2023-03-31T06:05:21;9.15;;;1.70;;
38238;SDS011;24035;48.900;9.188;2023-03-31T06:07:50;4.35;;;1.60;;
38238;SDS011;24035;48.900;9.188;2023-03-31T06:10:16;5.38;;;2.03;;
38238;SDS011;24035;48.900;9.188;2023-03-31T06:12:42;7.00;;;1.58;;
38238;SDS011;24035;48.900;9.188;2023-03-31T06:15:08;6.00;;;1.60;;
38238;SDS011;24035;48.900;9.188;2023-03-31T06:17:34;6.07;;;1.60;;
38238;SDS011;24035;48.900;9.188;2023-03-31T06:20:00;4.30;;;2.28;;
38238;SDS011;24035;48.900;9.188;2023-03-31T06:22:26;3.83;;;1.13;;
38238;SDS011;24035;48.900;9.188;2023-03-31T06:24:51;6.93;;;1.50;;
38238;SDS011;24035;48.900;9.188;2023-03-31T06:27:17;6.18;;;2.22;;
38238;SDS011;24035;48.900;9.188;2023-03-31T06:29:42;6.60;;;1.63;;
38238;SDS011;24035;48.900;9.188;2023-03-31T06:32:08;9.23;;;1.92;;
38238;SDS011;24035;48.900;9.188;2023-03-31T06:34:34;5.05;;;1.48;;
38238;SDS011;24035;48.900;9.188;2023-03-31T06:36:59;3.97;;;1.38;;
38238;SDS011;24035;48.900;9.188;2023-03-31T06:39:25;8.07;;;1.95;;
38238;SDS011;24035;48.900;9.188;2023-03-31T06:41:51;9.00;;;1.52;;
38238;SDS011;24035;48.900;9.188;2023-03-31T06:44:16;5.47;;;1.33;;
38238;SDS011;24035;48.900;9.188;2023-03-31T06:46:43;6.80;;;1.90;;
38238;SDS011;24035;48.900;9.188;2023-03-31T06:49:09;7.70;;;1.92;;
38238;SDS011;24035;48.900;9.188;2023-03-31T06:51:34;6.78;;;1.70;;
38238;SDS011;24035;48.900;9.188;2023-03-31T06:54:00;6.70;;;2.08;;
38238;SDS011;24035;48.900;9.188;2023-03-31T06:56:26;9.43;;;2.28;;
38238;SDS011;24035;48.900;9.188;2023-03-31T06:58:52;7.38;;;2.10;;
38238;SDS011;24035;48.900;9.188;2023-03-31T07:01:17;5.03;;;1.83;;
38238;SDS011;24035;48.900;9.188;2023-03-31T07:03:43;10.50;;;1.77;;
38238;SDS011;24035;48.900;9.188;2023-03-31T07:06:09;5.15;;;2.05;;
38238;SDS011;24035;48.900;9.188;2023-03-31T07:08:34;7.68;;;1.92;;
38238;SDS011;24035;48.900;9.188;2023-03-31T07:11:00;6.28;;;2.13;;
38238;SDS011;24035;48.900;9.188;2023-03-31T07:13:26;5.32;;;2.13;;
38238;SDS011;24035;48.900;9.188;2023-03-31T07:15:53;8.55;;;2.10;;
38238;SDS011;24035;48.900;9.188;2023-03-31T07:18:19;8.95;;;1.70;;
38238;SDS011;24035;48.900;9.188;2023-03-31T07:20:48;6.22;;;1.85;;
38238;SDS011;24035;48.900;9.188;2023-03-31T07:23:14;8.27;;;2.75;;
38238;SDS011;24035;48.900;9.188;2023-03-31T07:25:41;5.70;;;2.00;;
38238;SDS011;24035;48.900;9.188;2023-03-31T07:28:06;4.10;;;1.60;;
38238;SDS011;24035;48.900;9.188;2023-03-31T07:30:32;5.43;;;1.77;;
38238;SDS011;24035;48.900;9.188;2023-03-31T07:32:58;5.85;;;1.90;;
38238;SDS011;24035;48.900;9.188;2023-03-31T07:35:24;7.95;;;1.80;;
38238;SDS011;24035;48.900;9.188;2023-03-31T07:37:50;5.20;;;1.75;;
38238;SDS011;24035;48.900;9.188;2023-03-31T07:40:23;6.90;;;1.40;;
38238;SDS011;24035;48.900;9.188;2023-03-31T07:42:51;3.38;;;1.30;;
38238;SDS011;24035;48.900;9.188;2023-03-31T07:45:18;5.18;;;1.23;;
38238;SDS011;24035;48.900;9.188;2023-03-31T07:47:45;6.15;;;1.30;;
38238;SDS011;24035;48.900;9.188;2023-03-31T07:50:11;3.55;;;1.10;;
38238;SDS011;24035;48.900;9.188;2023-03-31T07:52:38;2.40;;;0.90;;
38238;SDS011;24035;48.900;9.188;2023-03-31T07:55:04;2.78;;;0.80;;
38238;SDS011;24035;48.900;9.188;2023-03-31T07:57:31;2.10;;;0.70;;
38238;SDS011;24035;48.900;9.188;2023-03-31T07:59:58;2.45;;;0.50;;
38238;SDS011;24035;48.900;9.188;2023-03-31T08:02:23;2.50;;;0.70;;
38238;SDS011;24035;48.900;9.188;2023-03-31T08:04:49;4.50;;;0.95;;
38238;SDS011;24035;48.900;9.188;2023-03-31T08:07:15;3.50;;;0.85;;
38238;SDS011;24035;48.900;9.188;2023-03-31T08:09:44;3.58;;;0.47;;
38238;SDS011;24035;48.900;9.188;2023-03-31T08:12:11;2.20;;;0.55;;
38238;SDS011;24035;48.900;9.188;2023-03-31T08:14:38;1.05;;;0.50;;
38238;SDS011;24035;48.900;9.188;2023-03-31T08:17:04;1.98;;;0.60;;
38238;SDS011;24035;48.900;9.188;2023-03-31T08:19:29;1.05;;;0.40;;
38238;SDS011;24035;48.900;9.188;2023-03-31T08:21:55;2.88;;;0.77;;
38238;SDS011;24035;48.900;9.188;2023-03-31T08:24:21;1.60;;;0.50;;
38238;SDS011;24035;48.900;9.188;2023-03-31T08:26:46;1.48;;;0.55;;
38238;SDS011;24035;48.900;9.188;2023-03-31T08:29:12;2.00;;;0.55;;
38238;SDS011;24035;48.900;9.188;2023-03-31T08:31:39;3.33;;;0.57;;
38238;SDS011;24035;48.900;9.188;2023-03-31T08:34:05;2.80;;;0.60;;
38238;SDS011;24035;48.900;9.188;2023-03-31T08:36:31;2.58;;;0.30;;
38238;SDS011;24035;48.900;9.188;2023-03-31T08:38:57;1.55;;;0.50;;
38238;SDS011;24035;48.900;9.188;2023-03-31T08:44:31;2.80;;;0.70;;
38238;SDS011;24035;48.900;9.188;2023-03-31T08:47:01;1.92;;;0.40;;
38238;SDS011;24035;48.900;9.188;2023-03-31T08:49:35;2.97;;;0.50;;
38238;SDS011;24035;48.900;9.188;2023-03-31T08:52:06;1.73;;;0.40;;
38238;SDS011;24035;48.900;9.188;2023-03-31T08:54:40;2.63;;;0.70;;
38238;SDS011;24035;48.900;9.188;2023-03-31T08:57:21;6.43;;;0.70;;
38238;SDS011;24035;48.900;9.188;2023-03-31T09:00:00;3.00;;;0.30;;
38238;SDS011;24035;48.900;9.188;2023-03-31T09:05:22;1.73;;;0.60;;
38238;SDS011;24035;48.900;9.188;2023-03-31T09:10:50;3.28;;;0.60;;
38238;SDS011;24035;48.900;9.188;2023-03-31T09:13:36;3.38;;;0.52;;
38238;SDS011;24035;48.900;9.188;2023-03-31T09:16:15;2.20;;;0.30;;
38238;SDS011;24035;48.900;9.188;2023-03-31T09:18:46;2.08;;;0.45;;
38238;SDS011;24035;48.900;9.188;2023-03-31T09:23:45;3.33;;;0.40;;
38238;SDS011;24035;48.900;9.188;2023-03-31T09:26:23;2.30;;;0.40;;
38238;SDS011;24035;48.900;9.188;2023-03-31T09:29:03;2.08;;;0.40;;
38238;SDS011;24035;48.900;9.188;2023-03-31T09:31:38;2.00;;;0.60;;
38238;SDS011;24035;48.900;9.188;2023-03-31T09:34:11;1.88;;;0.50;;
38238;SDS011;24035;48.900;9.188;2023-03-31T09:36:43;1.35;;;0.30;;
38238;SDS011;24035;48.900;9.188;2023-03-31T09:39:12;2.10;;;0.30;;
38238;SDS011;24035;48.900;9.188;2023-03-31T09:41:41;3.83;;;0.38;;
38238;SDS011;24035;48.900;9.188;2023-03-31T09:44:26;4.18;;;0.50;;
38238;SDS011;24035;48.900;9.188;2023-03-31T09:47:00;2.42;;;0.45;;
38238;SDS011;24035;48.900;9.188;2023-03-31T09:49:28;3.40;;;0.40;;
38238;SDS011;24035;48.900;9.188;2023-03-31T09:52:05;3.25;;;0.70;;
38238;SDS011;24035;48.900;9.188;2023-03-31T09:54:50;2.83;;;0.65;;
38238;SDS011;24035;48.900;9.188;2023-03-31T09:57:51;3.65;;;0.73;;
38238;SDS011;24035;48.900;9.188;2023-03-31T10:02:43;1.58;;;0.35;;
38238;SDS011;24035;48.900;9.188;2023-03-31T10:08:29;4.15;;;0.40;;
38238;SDS011;24035;48.900;9.188;2023-03-31T10:10:53;2.83;;;0.75;;
38238;SDS011;24035;48.900;9.188;2023-03-31T10:13:26;3.75;;;0.68;;
38238;SDS011;24035;48.900;9.188;2023-03-31T10:16:00;5.57;;;0.80;;
38238;SDS011;24035;48.900;9.188;2023-03-31T10:18:32;3.83;;;0.80;;
38238;SDS011;24035;48.900;9.188;2023-03-31T10:21:04;4.95;;;0.52;;
38238;SDS011;24035;48.900;9.188;2023-03-31T10:23:32;3.05;;;1.27;;
38238;SDS011;24035;48.900;9.188;2023-03-31T10:25:59;3.10;;;0.68;;
38238;SDS011;24035;48.900;9.188;2023-03-31T10:28:30;3.33;;;1.13;;
38238;SDS011;24035;48.900;9.188;2023-03-31T10:30:58;3.13;;;0.70;;
38238;SDS011;24035;48.900;9.188;2023-03-31T10:33:26;5.50;;;0.70;;
38238;SDS011;24035;48.900;9.188;2023-03-31T10:35:54;2.25;;;0.52;;
38238;SDS011;24035;48.900;9.188;2023-03-31T10:38:26;3.83;;;0.80;;
38238;SDS011;24035;48.900;9.188;2023-03-31T10:40:56;2.17;;;0.60;;
38238;SDS011;24035;48.900;9.188;2023-03-31T10:43:31;1.45;;;0.45;;
38238;SDS011;24035;48.900;9.188;2023-03-31T10:45:58;2.38;;;0.60;;
38238;SDS011;24035;48.900;9.188;2023-03-31T10:48:32;2.50;;;0.43;;
38238;SDS011;24035;48.900;9.188;2023-03-31T10:53:50;4.22;;;0.88;;
38238;SDS011;24035;48.900;9.188;2023-03-31T10:59:17;3.63;;;0.68;;
38238;SDS011;24035;48.900;9.188;2023-03-31T11:04:39;3.55;;;0.73;;
38238;SDS011;24035;48.900;9.188;2023-03-31T11:07:19;3.40;;;0.40;;
38238;SDS011;24035;48.900;9.188;2023-03-31T11:12:30;1.40;;;0.40;;
38238;SDS011;24035;48.900;9.188;2023-03-31T11:15:10;2.42;;;0.30;;
38238;SDS011;24035;48.900;9.188;2023-03-31T11:17:50;2.75;;;0.52;;
38238;SDS011;24035;48.900;9.188;2023-03-31T11:23:07;2.47;;;0.50;;
38238;SDS011;24035;48.900;9.188;2023-03-31T11:28:29;4.53;;;0.93;;
38238;SDS011;24035;48.900;9.188;2023-03-31T11:36:38;2.10;;;0.15;;
38238;SDS011;24035;48.900;9.188;2023-03-31T11:39:30;1.08;;;0.20;;
38238;SDS011;24035;48.900;9.188;2023-03-31T11:42:13;0.65;;;0.15;;
38238;SDS011;24035;48.900;9.188;2023-03-31T11:44:45;6.00;;;0.60;;
38238;SDS011;24035;48.900;9.188;2023-03-31T11:47:24;1.25;;;0.13;;
38238;SDS011;24035;48.900;9.188;2023-03-31T11:50:05;1.75;;;0.20;;
38238;SDS011;24035;48.900;9.188;2023-03-31T11:52:38;1.20;;;0.22;;
38238;SDS011;24035;48.900;9.188;2023-03-31T11:55:16;0.57;;;0.17;;
38238;SDS011;24035;48.900;9.188;2023-03-31T12:00:37;1.20;;;0.30;;
38238;SDS011;24035;48.900;9.188;2023-03-31T12:03:12;0.80;;;0.30;;
38238;SDS011;24035;48.900;9.188;2023-03-31T12:06:00;0.47;;;0.13;;
38238;SDS011;24035;48.900;9.188;2023-03-31T12:14:17;2.30;;;0.25;;
38238;SDS011;24035;48.900;9.188;2023-03-31T12:19:33;0.52;;;0.35;;
38238;SDS011;24035;48.900;9.188;2023-03-31T12:22:12;0.20;;;0.00;;
38238;SDS011;24035;48.900;9.188;2023-03-31T12:25:00;0.90;;;0.10;;
38238;SDS011;24035;48.900;9.188;2023-03-31T12:27:36;0.52;;;0.20;;
38238;SDS011;24035;48.900;9.188;2023-03-31T12:30:11;1.60;;;0.20;;
38238;SDS011;24035;48.900;9.188;2023-03-31T12:32:47;0.85;;;0.20;;
38238;SDS011;24035;48.900;9.188;2023-03-31T12:35:23;1.10;;;0.20;;
38238;SDS011;24035;48.900;9.188;2023-03-31T12:40:36;1.33;;;0.25;;
38238;SDS011;24035;48.900;9.188;2023-03-31T12:43:29;1.25;;;0.22;;
38238;SDS011;24035;48.900;9.188;2023-03-31T12:51:41;2.40;;;0.30;;
38238;SDS011;24035;48.900;9.188;2023-03-31T12:57:23;3.73;;;0.30;;
38238;SDS011;24035;48.900;9.188;2023-03-31T13:02:45;1.45;;;0.50;;
38238;SDS011;24035;48.900;9.188;2023-03-31T13:08:11;2.65;;;0.45;;
38238;SDS011;24035;48.900;9.188;2023-03-31T13:11:16;4.53;;;0.50;;
38238;SDS011;24035;48.900;9.188;2023-03-31T13:13:44;2.30;;;0.43;;
38238;SDS011;24035;48.900;9.188;2023-03-31T13:16:30;1.98;;;0.55;;
38238;SDS011;24035;48.900;9.188;2023-03-31T13:18:56;1.70;;;0.20;;
38238;SDS011;24035;48.900;9.188;2023-03-31T13:21:23;2.92;;;0.63;;
38238;SDS011;24035;48.900;9.188;2023-03-31T13:23:49;3.13;;;0.40;;
38238;SDS011;24035;48.900;9.188;2023-03-31T13:26:49;3.47;;;0.30;;
38238;SDS011;24035;48.900;9.188;2023-03-31T13:40:25;1.15;;;0.30;;
38238;SDS011;24035;48.900;9.188;2023-03-31T13:43:04;1.27;;;0.30;;
38238;SDS011;24035;48.900;9.188;2023-03-31T13:51:33;0.30;;;0.10;;
38238;SDS011;24035;48.900;9.188;2023-03-31T14:00:52;0.43;;;0.10;;
38238;SDS011;24035;48.900;9.188;2023-03-31T14:03:36;1.02;;;0.38;;
38238;SDS011;24035;48.900;9.188;2023-03-31T14:06:10;0.50;;;0.10;;
38238;SDS011;24035;48.900;9.188;2023-03-31T14:16:58;1.52;;;0.30;;
38238;SDS011;24035;48.900;9.188;2023-03-31T14:25:35;1.13;;;0.10;;
38238;SDS011;24035;48.900;9.188;2023-03-31T14:28:51;4.82;;;0.60;;
38238;SDS011;24035;48.900;9.188;2023-03-31T14:36:42;0.55;;;0.13;;
38238;SDS011;24035;48.900;9.188;2023-03-31T14:39:21;2.30;;;0.30;;
38238;SDS011;24035;48.900;9.188;2023-03-31T14:41:52;2.47;;;0.40;;
38238;SDS011;24035;48.900;9.188;2023-03-31T14:44:18;1.13;;;0.30;;
38238;SDS011;24035;48.900;9.188;2023-03-31T14:46:44;2.38;;;0.20;;
38238;SDS011;24035;48.900;9.188;2023-03-31T14:49:17;0.63;;;0.10;;
38238;SDS011;24035;48.900;9.188;2023-03-31T14:51:43;3.33;;;0.30;;
38238;SDS011;24035;48.900;9.188;2023-03-31T14:54:16;1.85;;;0.30;;
38238;SDS011;24035;48.900;9.188;2023-03-31T14:56:44;2.65;;;0.10;;
38238;SDS011;24035;48.900;9.188;2023-03-31T14:59:15;0.50;;;0.15;;
38238;SDS011;24035;48.900;9.188;2023-03-31T15:01:45;2.70;;;0.15;;
38238;SDS011;24035;48.900;9.188;2023-03-31T15:04:12;0.30;;;0.10;;
38238;SDS011;24035;48.900;9.188;2023-03-31T15:06:43;0.80;;;0.17;;
38238;SDS011;24035;48.900;9.188;2023-03-31T15:09:17;1.35;;;0.40;;
38238;SDS011;24035;48.900;9.188;2023-03-31T15:11:52;1.30;;;0.20;;
38238;SDS011;24035;48.900;9.188;2023-03-31T15:14:29;1.90;;;0.17;;
38238;SDS011;24035;48.900;9.188;2023-03-31T15:16:58;0.38;;;0.10;;
38238;SDS011;24035;48.900;9.188;2023-03-31T15:19:32;1.27;;;0.30;;
38238;SDS011;24035;48.900;9.188;2023-03-31T15:22:07;0.32;;;0.10;;
38238;SDS011;24035;48.900;9.188;2023-03-31T15:24:38;0.22;;;0.10;;
38238;SDS011;24035;48.900;9.188;2023-03-31T15:29:40;1.55;;;0.13;;
38238;SDS011;24035;48.900;9.188;2023-03-31T15:32:16;1.23;;;0.20;;
38238;SDS011;24035;48.900;9.188;2023-03-31T15:34:55;1.30;;;0.30;;
38238;SDS011;24035;48.900;9.188;2023-03-31T15:37:26;2.58;;;0.17;;
38238;SDS011;24035;48.900;9.188;2023-03-31T15:39:57;1.10;;;0.35;;
38238;SDS011;24035;48.900;9.188;2023-03-31T15:42:25;2.25;;;0.10;;
38238;SDS011;24035;48.900;9.188;2023-03-31T15:44:56;1.92;;;0.32;;
38238;SDS011;24035;48.900;9.188;2023-03-31T15:47:53;0.45;;;0.10;;
38238;SDS011;24035;48.900;9.188;2023-03-31T15:50:20;1.90;;;0.32;;
38238;SDS011;24035;48.900;9.188;2023-03-31T15:52:50;2.20;;;0.20;;
38238;SDS011;24035;48.900;9.188;2023-03-31T15:57:55;1.90;;;0.30;;
38238;SDS011;24035;48.900;9.188;2023-03-31T16:00:45;1.55;;;0.50;;
38238;SDS011;24035;48.900;9.188;2023-03-31T16:03:34;3.15;;;1.15;;
38238;SDS011;24035;48.900;9.188;2023-03-31T16:09:00;1.27;;;0.20;;
38238;SDS011;24035;48.900;9.188;2023-03-31T16:11:40;2.80;;;0.40;;
38238;SDS011;24035;48.900;9.188;2023-03-31T16:14:26;3.47;;;0.85;;
38238;SDS011;24035;48.900;9.188;2023-03-31T16:17:04;1.35;;;0.40;;
38238;SDS011;24035;48.900;9.188;2023-03-31T16:19:38;3.10;;;0.43;;
38238;SDS011;24035;48.900;9.188;2023-03-31T16:22:07;2.40;;;0.40;;
38238;SDS011;24035;48.900;9.188;2023-03-31T16:24:43;1.23;;;0.30;;
38238;SDS011;24035;48.900;9.188;2023-03-31T16:27:09;1.33;;;0.25;;
38238;SDS011;24035;48.900;9.188;2023-03-31T16:29:35;1.95;;;0.30;;
38238;SDS011;24035;48.900;9.188;2023-03-31T16:34:52;2.95;;;0.38;;
38238;SDS011;24035;48.900;9.188;2023-03-31T16:37:23;0.80;;;0.20;;
38238;SDS011;24035;48.900;9.188;2023-03-31T16:39:49;1.17;;;0.20;;
38238;SDS011;24035;48.900;9.188;2023-03-31T16:42:15;0.77;;;0.35;;
38238;SDS011;24035;48.900;9.188;2023-03-31T16:44:41;0.65;;;0.20;;
38238;SDS011;24035;48.900;9.188;2023-03-31T16:47:08;1.80;;;0.25;;
38238;SDS011;24035;48.900;9.188;2023-03-31T16:49:34;3.72;;;0.20;;
38238;SDS011;24035;48.900;9.188;2023-03-31T16:52:00;1.35;;;0.35;;
38238;SDS011;24035;48.900;9.188;2023-03-31T16:54:26;0.68;;;0.10;;
38238;SDS011;24035;48.900;9.188;2023-03-31T16:56:51;2.20;;;0.20;;
38238;SDS011;24035;48.900;9.188;2023-03-31T16:59:17;0.30;;;0.10;;
38238;SDS011;24035;48.900;9.188;2023-03-31T17:01:42;2.05;;;0.20;;
38238;SDS011;24035;48.900;9.188;2023-03-31T17:04:09;0.82;;;0.20;;
38238;SDS011;24035;48.900;9.188;2023-03-31T17:06:35;1.65;;;0.30;;
38238;SDS011;24035;48.900;9.188;2023-03-31T17:09:01;0.88;;;0.22;;
38238;SDS011;24035;48.900;9.188;2023-03-31T17:11:27;0.82;;;0.32;;
38238;SDS011;24035;48.900;9.188;2023-03-31T17:13:54;1.75;;;0.35;;
38238;SDS011;24035;48.900;9.188;2023-03-31T17:16:20;1.77;;;0.20;;
38238;SDS011;24035;48.900;9.188;2023-03-31T17:18:46;0.40;;;0.13;;
38238;SDS011;24035;48.900;9.188;2023-03-31T17:21:13;0.77;;;0.20;;
38238;SDS011;24035;48.900;9.188;2023-03-31T17:23:42;1.77;;;0.47;;
38238;SDS011;24035;48.900;9.188;2023-03-31T17:26:08;1.08;;;0.22;;
38238;SDS011;24035;48.900;9.188;2023-03-31T17:28:36;1.05;;;0.30;;
38238;SDS011;24035;48.900;9.188;2023-03-31T17:31:11;1.85;;;0.40;;
38238;SDS011;24035;48.900;9.188;2023-03-31T17:33:39;1.77;;;0.57;;
38238;SDS011;24035;48.900;9.188;2023-03-31T17:36:06;1.90;;;0.40;;
38238;SDS011;24035;48.900;9.188;2023-03-31T17:38:32;1.52;;;0.40;;
38238;SDS011;24035;48.900;9.188;2023-03-31T17:41:02;1.38;;;0.28;;
38238;SDS011;24035;48.900;9.188;2023-03-31T17:43:28;2.30;;;0.68;;
38238;SDS011;24035;48.900;9.188;2023-03-31T17:46:00;0.80;;;0.30;;
38238;SDS011;24035;48.900;9.188;2023-03-31T17:48:28;0.35;;;0.17;;
38238;SDS011;24035;48.900;9.188;2023-03-31T17:50:54;0.80;;;0.10;;
38238;SDS011;24035;48.900;9.188;2023-03-31T17:53:19;1.95;;;0.45;;